createdAt,value
2022-12-03T00:00:12.088Z,7.40
2022-12-03T00:02:41.060Z,7.00
2022-12-03T00:05:08.981Z,6.33
2022-12-03T00:07:38.341Z,6.90
2022-12-03T00:10:07.393Z,6.80
2022-12-03T00:12:35.219Z,6.55
2022-12-03T00:15:02.785Z,6.35
2022-12-03T00:17:30.124Z,6.40
2022-12-03T00:19:57.472Z,6.57
2022-12-03T00:22:24.931Z,6.15
2022-12-03T00:24:52.480Z,6.30
2022-12-03T00:27:20.026Z,6.75
2022-12-03T00:29:47.628Z,7.10
2022-12-03T00:32:14.998Z,6.65
2022-12-03T00:34:42.367Z,7.10
2022-12-03T00:37:13.430Z,6.07
2022-12-03T00:39:40.826Z,6.40
2022-12-03T00:42:08.205Z,6.50
2022-12-03T00:44:35.893Z,6.47
2022-12-03T00:47:03.886Z,6.80
2022-12-03T00:49:31.930Z,7.03
2022-12-03T00:51:59.335Z,7.25
2022-12-03T00:54:31.590Z,8.37
2022-12-03T00:56:59.600Z,7.55
2022-12-03T00:59:26.927Z,7.53
2022-12-03T01:01:54.331Z,7.80
2022-12-03T01:04:21.856Z,8.25
2022-12-03T01:06:49.255Z,8.40
2022-12-03T01:09:16.663Z,8.50
2022-12-03T01:11:44.021Z,8.52
2022-12-03T01:14:16.555Z,8.77
2022-12-03T01:16:44.393Z,8.18
2022-12-03T01:19:16.473Z,8.20
2022-12-03T01:21:49.725Z,8.15
2022-12-03T01:24:17.909Z,7.18
2022-12-03T01:26:45.434Z,7.03
2022-12-03T01:29:12.990Z,7.05
2022-12-03T01:31:58.970Z,7.17
2022-12-03T01:34:26.352Z,6.63
2022-12-03T01:36:53.824Z,6.88
2022-12-03T01:39:21.318Z,6.72
2022-12-03T01:41:50.078Z,6.55
2022-12-03T01:44:24.326Z,7.03
2022-12-03T01:46:53.819Z,7.35
2022-12-03T01:49:25.546Z,7.35
2022-12-03T01:51:56.839Z,7.13
2022-12-03T01:54:38.470Z,7.30
2022-12-03T01:57:09.602Z,8.20
2022-12-03T01:59:39.247Z,7.32
2022-12-03T02:02:29.156Z,7.45
2022-12-03T02:04:57.732Z,7.43
2022-12-03T02:07:33.293Z,7.40
2022-12-03T02:10:02.614Z,6.90
2022-12-03T02:12:54.830Z,7.50
2022-12-03T02:15:22.271Z,6.95
2022-12-03T02:17:49.885Z,7.15
2022-12-03T02:20:17.457Z,6.82
2022-12-03T02:23:00.348Z,6.53
2022-12-03T02:25:32.314Z,6.07
2022-12-03T02:28:01.088Z,6.15
2022-12-03T02:30:30.343Z,5.90
2022-12-03T02:32:58.625Z,6.10
2022-12-03T02:35:34.874Z,5.30
2022-12-03T02:38:19.060Z,5.80
2022-12-03T02:40:50.114Z,6.20
2022-12-03T02:43:20.397Z,6.05
2022-12-03T02:45:51.930Z,6.13
2022-12-03T02:48:27.883Z,5.47
2022-12-03T02:51:05.174Z,5.50
2022-12-03T02:53:38.616Z,5.70
2022-12-03T02:56:06.776Z,5.80
2022-12-03T02:58:34.776Z,5.72
2022-12-03T03:01:04.378Z,6.07
2022-12-03T03:03:33.189Z,5.70
2022-12-03T03:06:03.109Z,5.90
2022-12-03T03:08:31.423Z,6.18
2022-12-03T03:11:01.263Z,6.28
2022-12-03T03:13:31.554Z,5.80
2022-12-03T03:15:59.621Z,6.40
2022-12-03T03:18:27.015Z,7.05
2022-12-03T03:20:54.536Z,6.75
2022-12-03T03:23:24.462Z,7.15
2022-12-03T03:26:03.018Z,6.83
2022-12-03T03:28:31.321Z,6.97
2022-12-03T03:31:01.021Z,7.28
2022-12-03T03:33:29.234Z,7.43
2022-12-03T03:35:57.795Z,7.80
2022-12-03T03:38:25.232Z,8.03
2022-12-03T03:40:54.221Z,7.70
2022-12-03T03:43:23.255Z,7.38
2022-12-03T03:45:51.551Z,8.00
2022-12-03T03:48:20.012Z,7.65
2022-12-03T03:50:47.703Z,7.63
2022-12-03T03:53:15.851Z,7.57
2022-12-03T03:55:43.307Z,7.97
2022-12-03T03:58:11.124Z,8.13
2022-12-03T04:00:38.607Z,8.40
2022-12-03T04:03:06.571Z,8.43
2022-12-03T04:05:34.031Z,8.23
2022-12-03T04:08:01.578Z,8.57
2022-12-03T04:10:47.754Z,8.48
2022-12-03T04:13:15.851Z,7.72
2022-12-03T04:15:43.180Z,8.07
2022-12-03T04:18:28.769Z,7.05
2022-12-03T04:21:15.997Z,7.75
2022-12-03T04:23:43.388Z,8.27
2022-12-03T04:26:29.162Z,7.47
2022-12-03T04:28:56.621Z,7.60
2022-12-03T04:31:43.018Z,6.65
2022-12-03T04:34:30.117Z,6.80
2022-12-03T04:36:57.432Z,7.70
2022-12-03T04:39:24.804Z,7.95
2022-12-03T04:41:52.225Z,7.40
2022-12-03T04:44:38.698Z,8.43
2022-12-03T04:47:12.696Z,7.40
2022-12-03T04:49:44.274Z,7.28
2022-12-03T04:52:13.177Z,7.20
2022-12-03T04:54:41.245Z,7.20
2022-12-03T04:57:09.723Z,7.32
2022-12-03T04:59:37.614Z,7.28
2022-12-03T05:02:06.438Z,7.68
2022-12-03T05:04:34.286Z,7.88
2022-12-03T05:07:01.653Z,7.67
2022-12-03T05:09:28.986Z,7.90
2022-12-03T05:11:56.339Z,10.07
2022-12-03T05:14:23.907Z,10.25
2022-12-03T05:16:51.797Z,10.43
2022-12-03T05:19:19.597Z,10.53
2022-12-03T05:21:46.934Z,10.65
2022-12-03T05:24:14.876Z,10.40
2022-12-03T05:26:42.237Z,11.73
2022-12-03T05:29:09.620Z,11.55
2022-12-03T05:31:36.974Z,12.67
2022-12-03T05:34:04.587Z,12.38
2022-12-03T05:36:32.301Z,12.30
2022-12-03T05:38:59.640Z,12.88
2022-12-03T05:41:45.102Z,13.75
2022-12-03T05:44:15.085Z,13.67
2022-12-03T05:46:46.332Z,13.30
2022-12-03T05:49:14.272Z,12.77
2022-12-03T05:51:43.402Z,13.70
2022-12-03T05:54:10.741Z,13.77
2022-12-03T05:56:38.109Z,14.43
2022-12-03T05:59:05.941Z,14.50
2022-12-03T06:01:33.350Z,13.85
2022-12-03T06:04:01.159Z,13.85
2022-12-03T06:06:28.578Z,12.82
2022-12-03T06:08:55.940Z,13.43
2022-12-03T06:11:23.349Z,13.55
2022-12-03T06:13:52.541Z,12.68
2022-12-03T06:16:20.069Z,12.35
2022-12-03T06:18:47.433Z,12.02
2022-12-03T06:21:14.758Z,12.63
2022-12-03T06:23:45.019Z,11.88
2022-12-03T06:26:13.276Z,11.88
2022-12-03T06:28:46.551Z,11.27
2022-12-03T06:31:14.638Z,11.35
2022-12-03T06:33:41.971Z,10.90
2022-12-03T06:36:09.901Z,11.23
2022-12-03T06:38:37.218Z,11.65
2022-12-03T06:41:04.952Z,10.93
2022-12-03T06:43:32.780Z,11.63
2022-12-03T06:46:00.510Z,10.97
2022-12-03T06:48:28.133Z,11.43
2022-12-03T06:50:55.866Z,12.32
2022-12-03T06:53:25.429Z,12.00
2022-12-03T06:55:53.867Z,11.82
2022-12-03T06:58:21.441Z,12.20
2022-12-03T07:00:49.288Z,11.80
2022-12-03T07:03:16.954Z,12.10
2022-12-03T07:05:44.326Z,11.55
2022-12-03T07:08:12.338Z,12.30
2022-12-03T07:10:39.750Z,12.70
2022-12-03T07:13:07.329Z,11.57
2022-12-03T07:15:35.188Z,13.82
2022-12-03T07:18:02.875Z,11.75
2022-12-03T07:20:30.364Z,11.45
2022-12-03T07:22:57.776Z,12.50
2022-12-03T07:25:25.200Z,11.32
2022-12-03T07:27:52.569Z,12.07
2022-12-03T07:30:20.101Z,9.45
2022-12-03T07:32:47.561Z,8.82
2022-12-03T07:35:15.308Z,9.80
2022-12-03T07:37:42.726Z,10.60
2022-12-03T07:40:10.753Z,10.18
2022-12-03T07:42:38.340Z,10.65
2022-12-03T07:45:06.356Z,10.45
2022-12-03T07:47:37.309Z,10.33
2022-12-03T07:50:06.184Z,10.32
2022-12-03T07:52:33.867Z,9.20
2022-12-03T07:55:01.410Z,9.05
2022-12-03T07:57:29.061Z,9.65
2022-12-03T07:59:56.384Z,9.03
2022-12-03T08:02:23.736Z,8.02
2022-12-03T08:04:51.295Z,8.55
2022-12-03T08:07:18.727Z,8.70
2022-12-03T08:09:46.264Z,8.30
2022-12-03T08:12:17.491Z,9.03
2022-12-03T08:14:45.187Z,9.18
2022-12-03T08:17:14.912Z,8.77
2022-12-03T08:19:46.949Z,9.80
2022-12-03T08:22:16.732Z,8.73
2022-12-03T08:24:44.372Z,9.27
2022-12-03T08:27:20.013Z,9.43
2022-12-03T08:29:47.832Z,10.05
2022-12-03T08:32:15.240Z,9.60
2022-12-03T08:34:44.830Z,11.20
2022-12-03T08:37:19.816Z,12.47
2022-12-03T08:39:49.474Z,11.65
2022-12-03T08:42:40.157Z,11.20
2022-12-03T08:45:40.435Z,11.02
2022-12-03T08:48:27.866Z,12.07
2022-12-03T08:50:58.190Z,13.00
2022-12-03T08:53:37.301Z,11.65
2022-12-03T08:56:22.960Z,12.23
2022-12-03T08:59:01.212Z,15.55
2022-12-03T09:01:42.090Z,12.23
2022-12-03T09:04:30.747Z,12.27
2022-12-03T09:06:59.010Z,10.80
2022-12-03T09:09:26.875Z,12.13
2022-12-03T09:11:54.768Z,13.07
2022-12-03T09:14:23.062Z,13.63
2022-12-03T09:16:56.008Z,12.30
2022-12-03T09:19:25.913Z,12.93
2022-12-03T09:21:54.878Z,11.20
2022-12-03T09:24:22.379Z,13.05
2022-12-03T09:26:50.337Z,14.05
2022-12-03T09:29:17.722Z,11.67
2022-12-03T09:31:45.177Z,12.90
2022-12-03T09:34:13.079Z,12.95
2022-12-03T09:36:40.952Z,12.35
2022-12-03T09:39:08.417Z,13.60
2022-12-03T09:41:36.144Z,11.33
2022-12-03T09:44:05.268Z,11.85
2022-12-03T09:46:35.349Z,12.10
2022-12-03T09:49:03.865Z,12.15
2022-12-03T09:51:36.546Z,11.77
2022-12-03T09:54:06.552Z,11.87
2022-12-03T09:56:38.129Z,10.50
2022-12-03T09:59:15.860Z,10.77
2022-12-03T10:01:43.736Z,12.20
2022-12-03T10:04:11.454Z,11.73
2022-12-03T10:06:45.573Z,11.10
2022-12-03T10:09:17.661Z,9.93
2022-12-03T10:11:45.203Z,12.15
2022-12-03T10:14:15.092Z,11.02
2022-12-03T10:16:42.659Z,10.77
2022-12-03T10:19:19.585Z,11.83
2022-12-03T10:21:47.123Z,11.88
2022-12-03T10:24:17.692Z,11.23
2022-12-03T10:26:46.996Z,13.88
2022-12-03T10:29:19.963Z,12.90
2022-12-03T10:31:58.510Z,12.17
2022-12-03T10:34:28.291Z,12.38
2022-12-03T10:37:20.304Z,14.90
2022-12-03T10:40:00.756Z,14.10
2022-12-03T10:42:30.730Z,14.02
2022-12-03T10:45:16.835Z,13.60
2022-12-03T10:48:02.398Z,13.98
2022-12-03T10:50:29.986Z,14.18
2022-12-03T10:52:57.327Z,14.45
2022-12-03T10:55:25.528Z,14.00
2022-12-03T10:57:53.019Z,14.33
2022-12-03T11:00:21.563Z,15.00
2022-12-03T11:02:56.123Z,13.77
2022-12-03T11:05:29.446Z,12.85
2022-12-03T11:07:57.326Z,12.75
2022-12-03T11:10:25.819Z,12.37
2022-12-03T11:13:28.486Z,13.23
2022-12-03T11:15:56.796Z,12.60
2022-12-03T11:18:50.910Z,12.27
2022-12-03T11:21:18.384Z,12.90
2022-12-03T11:23:45.725Z,12.53
2022-12-03T11:26:19.566Z,12.60
2022-12-03T11:28:47.610Z,12.70
2022-12-03T11:31:35.356Z,11.90
2022-12-03T11:34:23.478Z,11.05
2022-12-03T11:37:12.221Z,12.00
2022-12-03T11:39:45.815Z,11.55
2022-12-03T11:42:41.154Z,11.90
2022-12-03T11:45:08.820Z,11.65
2022-12-03T11:47:45.915Z,12.45
2022-12-03T11:50:39.306Z,12.00
2022-12-03T11:53:25.529Z,11.15
2022-12-03T11:56:09.323Z,11.13
2022-12-03T11:58:39.792Z,11.95
2022-12-03T12:01:08.548Z,10.85
2022-12-03T12:03:47.575Z,14.53
2022-12-03T12:06:20.767Z,12.57
2022-12-03T12:08:51.453Z,18.45
2022-12-03T12:11:40.104Z,74.18
2022-12-03T12:14:10.014Z,16.08
2022-12-03T12:16:50.769Z,10.53
2022-12-03T12:19:41.558Z,9.60
2022-12-03T12:22:26.862Z,8.55
2022-12-03T12:25:01.314Z,10.57
2022-12-03T12:27:45.441Z,9.30
2022-12-03T12:30:18.645Z,8.87
2022-12-03T12:32:49.428Z,9.05
2022-12-03T12:35:23.527Z,8.68
2022-12-03T12:38:00.824Z,8.93
2022-12-03T12:40:31.561Z,9.57
2022-12-03T12:43:12.425Z,9.90
2022-12-03T12:45:44.059Z,11.93
2022-12-03T12:48:34.220Z,11.10
2022-12-03T12:51:14.106Z,10.95
2022-12-03T12:53:43.213Z,11.25
2022-12-03T12:56:46.572Z,11.10
2022-12-03T12:59:15.586Z,7.53
2022-12-03T13:01:45.026Z,6.28
2022-12-03T13:04:19.893Z,6.32
2022-12-03T13:06:53.805Z,7.43
2022-12-03T13:09:24.098Z,7.07
2022-12-03T13:11:58.273Z,9.32
2022-12-03T13:14:30.810Z,6.53
2022-12-03T13:17:01.515Z,5.40
2022-12-03T13:19:31.566Z,6.10
2022-12-03T13:22:02.505Z,6.77
2022-12-03T13:24:41.068Z,7.07
2022-12-03T13:27:14.399Z,6.15
2022-12-03T13:29:41.861Z,5.70
2022-12-03T13:32:16.426Z,6.18
2022-12-03T13:34:45.129Z,7.10
2022-12-03T13:37:20.396Z,6.60
2022-12-03T13:39:54.497Z,6.63
2022-12-03T13:42:39.584Z,6.85
2022-12-03T13:45:31.001Z,7.47
2022-12-03T13:48:14.214Z,9.87
2022-12-03T13:50:47.373Z,12.75
2022-12-03T13:53:25.292Z,9.48
2022-12-03T13:55:58.278Z,10.43
2022-12-03T13:58:25.801Z,7.68
2022-12-03T14:01:01.022Z,13.60
2022-12-03T14:03:30.783Z,9.27
2022-12-03T14:05:58.425Z,9.05
2022-12-03T14:08:27.036Z,11.63
2022-12-03T14:11:00.236Z,10.50
2022-12-03T14:13:30.779Z,9.53
2022-12-03T14:16:13.833Z,6.28
2022-12-03T14:18:41.725Z,6.25
2022-12-03T14:21:09.074Z,12.02
2022-12-03T14:23:37.558Z,16.50
2022-12-03T14:26:05.238Z,19.00
2022-12-03T14:28:32.949Z,20.27
2022-12-03T14:31:00.506Z,17.77
2022-12-03T14:33:28.689Z,19.15
2022-12-03T14:35:56.772Z,22.58
2022-12-03T14:38:25.172Z,19.00
2022-12-03T14:40:52.871Z,21.00
2022-12-03T14:43:21.985Z,21.02
2022-12-03T14:45:50.110Z,20.42
2022-12-03T14:48:18.127Z,19.95
2022-12-03T14:50:45.496Z,20.93
2022-12-03T14:53:12.999Z,20.85
2022-12-03T14:55:40.603Z,20.67
2022-12-03T14:58:08.329Z,20.13
2022-12-03T15:00:36.681Z,21.35
2022-12-03T15:03:08.973Z,22.53
2022-12-03T15:05:36.675Z,22.10
2022-12-03T15:08:04.136Z,24.10
2022-12-03T15:10:31.949Z,22.27
2022-12-03T15:12:59.535Z,22.27
2022-12-03T15:15:27.535Z,22.27
2022-12-03T15:17:55.312Z,23.10
2022-12-03T15:20:22.655Z,20.90
2022-12-03T15:22:50.370Z,23.27
2022-12-03T15:25:24.857Z,26.83
2022-12-03T15:27:52.273Z,25.67
2022-12-03T15:30:21.016Z,22.42
2022-12-03T15:32:48.481Z,20.45
2022-12-03T15:35:18.815Z,22.13
2022-12-03T15:37:46.359Z,24.25
2022-12-03T15:40:14.316Z,21.83
2022-12-03T15:42:41.994Z,23.00
2022-12-03T15:45:14.986Z,21.30
2022-12-03T15:47:43.266Z,22.67
2022-12-03T15:50:11.062Z,24.08
2022-12-03T15:52:38.678Z,24.03
2022-12-03T15:55:06.771Z,24.02
2022-12-03T15:57:34.334Z,24.17
2022-12-03T16:00:02.059Z,25.80
2022-12-03T16:02:40.374Z,24.80
2022-12-03T16:05:10.482Z,23.30
2022-12-03T16:07:39.402Z,23.27
2022-12-03T16:10:09.056Z,25.15
2022-12-03T16:12:36.898Z,23.10
2022-12-03T16:15:04.662Z,23.00
2022-12-03T16:17:32.000Z,21.67
2022-12-03T16:19:59.403Z,22.33
2022-12-03T16:22:26.781Z,21.83
2022-12-03T16:24:54.220Z,19.60
2022-12-03T16:27:25.659Z,19.67
2022-12-03T16:29:53.924Z,17.20
2022-12-03T16:32:21.550Z,17.15
2022-12-03T16:34:49.304Z,16.17
2022-12-03T16:37:16.947Z,13.00
2022-12-03T16:39:48.110Z,11.35
2022-12-03T16:42:17.531Z,10.47
2022-12-03T16:45:03.639Z,9.63
2022-12-03T16:47:34.124Z,7.90
2022-12-03T16:50:03.249Z,6.93
2022-12-03T16:52:30.612Z,6.88
2022-12-03T16:54:58.719Z,11.07
2022-12-03T16:57:30.377Z,8.55
2022-12-03T17:00:01.082Z,6.70
2022-12-03T17:02:28.704Z,7.68
2022-12-03T17:04:56.085Z,6.25
2022-12-03T17:07:23.510Z,5.97
2022-12-03T17:09:50.865Z,6.25
2022-12-03T17:12:18.196Z,6.20
2022-12-03T17:14:45.617Z,6.82
2022-12-03T17:17:12.938Z,8.40
2022-12-03T17:19:40.361Z,8.70
2022-12-03T17:22:07.678Z,8.95
2022-12-03T17:24:35.097Z,7.07
2022-12-03T17:27:02.492Z,6.53
2022-12-03T17:29:30.283Z,7.32
2022-12-03T17:31:57.626Z,6.77
2022-12-03T17:34:25.230Z,6.80
2022-12-03T17:36:52.871Z,7.30
2022-12-03T17:39:20.593Z,6.47
2022-12-03T17:41:48.138Z,5.78
2022-12-03T17:44:20.725Z,6.43
2022-12-03T17:46:48.831Z,6.13
2022-12-03T17:49:16.819Z,6.00
2022-12-03T17:51:44.246Z,5.85
2022-12-03T17:54:11.535Z,7.07
2022-12-03T17:56:39.609Z,5.90
2022-12-03T17:59:07.032Z,5.47
2022-12-03T18:01:34.365Z,5.43
2022-12-03T18:04:01.766Z,5.40
2022-12-03T18:06:29.172Z,4.90
2022-12-03T18:08:56.481Z,4.87
2022-12-03T18:11:24.313Z,4.80
2022-12-03T18:13:52.214Z,5.60
2022-12-03T18:16:19.714Z,5.20
2022-12-03T18:18:47.048Z,6.13
2022-12-03T18:21:15.105Z,6.93
2022-12-03T18:23:42.701Z,5.55
2022-12-03T18:26:10.010Z,5.72
2022-12-03T18:28:37.291Z,5.57
2022-12-03T18:31:07.237Z,5.30
2022-12-03T18:33:34.725Z,5.07
2022-12-03T18:36:02.262Z,4.90
2022-12-03T18:38:31.366Z,5.05
2022-12-03T18:40:58.762Z,4.82
2022-12-03T18:43:28.386Z,5.03
2022-12-03T18:45:55.700Z,4.53
2022-12-03T18:48:23.359Z,4.82
2022-12-03T18:50:50.621Z,4.50
2022-12-03T18:53:19.637Z,5.07
2022-12-03T18:55:47.970Z,5.60
2022-12-03T18:58:19.594Z,4.30
2022-12-03T19:00:46.939Z,3.97
2022-12-03T19:03:14.410Z,4.47
2022-12-03T19:05:41.760Z,5.07
2022-12-03T19:08:14.840Z,5.70
2022-12-03T19:10:43.487Z,6.70
2022-12-03T19:13:11.097Z,7.30
2022-12-03T19:15:39.633Z,5.20
2022-12-03T19:18:07.797Z,4.45
2022-12-03T19:20:35.086Z,4.07
2022-12-03T19:23:02.722Z,4.20
2022-12-03T19:25:29.988Z,5.72
2022-12-03T19:27:57.870Z,5.18
2022-12-03T19:30:25.500Z,4.40
2022-12-03T19:32:52.797Z,4.63
2022-12-03T19:35:21.641Z,5.33
2022-12-03T19:37:50.023Z,4.30
2022-12-03T19:40:17.737Z,4.15
2022-12-03T19:42:45.392Z,4.00
2022-12-03T19:45:12.687Z,4.63
2022-12-03T19:47:40.192Z,3.80
2022-12-03T19:50:08.774Z,4.20
2022-12-03T19:52:37.014Z,4.40
2022-12-03T19:55:05.510Z,3.78
2022-12-03T19:57:33.147Z,4.10
2022-12-03T20:00:01.363Z,4.63
2022-12-03T20:02:28.794Z,4.28
2022-12-03T20:04:56.794Z,4.30
2022-12-03T20:07:24.130Z,4.25
2022-12-03T20:09:52.116Z,4.88
2022-12-03T20:12:19.609Z,5.20
2022-12-03T20:14:46.927Z,4.35
2022-12-03T20:17:14.248Z,5.40
2022-12-03T20:19:42.725Z,6.15
2022-12-03T20:22:11.307Z,5.32
2022-12-03T20:24:38.533Z,4.77
2022-12-03T20:27:09.168Z,4.93
2022-12-03T20:29:40.570Z,5.82
2022-12-03T20:32:10.179Z,5.78
2022-12-03T20:34:39.500Z,5.78
2022-12-03T20:37:08.260Z,5.10
2022-12-03T20:39:35.998Z,5.22
2022-12-03T20:42:03.444Z,4.72
2022-12-03T20:44:30.701Z,5.03
2022-12-03T20:46:58.164Z,5.22
2022-12-03T20:49:25.504Z,4.10
2022-12-03T20:51:52.802Z,4.05
2022-12-03T20:54:20.205Z,4.80
2022-12-03T20:56:47.558Z,5.70
2022-12-03T20:59:17.014Z,5.05
2022-12-03T21:01:45.165Z,4.67
2022-12-03T21:04:18.298Z,4.45
2022-12-03T21:06:46.321Z,5.43
2022-12-03T21:09:14.682Z,5.63
2022-12-03T21:11:42.779Z,5.22
2022-12-03T21:14:11.712Z,4.93
2022-12-03T21:17:07.261Z,4.75
2022-12-03T21:19:32.065Z,5.20
2022-12-03T21:21:59.457Z,6.05
2022-12-03T21:24:27.031Z,8.18
2022-12-03T21:26:54.378Z,5.20
2022-12-03T21:29:22.270Z,5.32
2022-12-03T21:31:49.594Z,6.05
2022-12-03T21:34:16.946Z,5.70
2022-12-03T21:36:47.012Z,7.28
2022-12-03T21:39:14.674Z,6.13
2022-12-03T21:41:41.998Z,6.60
2022-12-03T21:44:29.585Z,6.40
2022-12-03T21:47:09.144Z,36.08
2022-12-03T21:49:40.731Z,6.78
2022-12-03T21:52:08.015Z,6.63
2022-12-03T21:54:35.478Z,6.13
2022-12-03T21:57:03.291Z,7.07
2022-12-03T21:59:30.667Z,7.18
2022-12-03T22:01:58.410Z,6.97
2022-12-03T22:04:25.986Z,5.67
2022-12-03T22:06:53.494Z,6.82
2022-12-03T22:09:26.281Z,7.07
2022-12-03T22:11:57.141Z,6.25
2022-12-03T22:14:24.444Z,6.15
2022-12-03T22:16:51.803Z,6.50
2022-12-03T22:19:19.139Z,6.70
2022-12-03T22:21:50.433Z,6.85
2022-12-03T22:24:19.148Z,7.38
2022-12-03T22:26:47.720Z,7.03
2022-12-03T22:29:15.247Z,6.13
2022-12-03T22:31:42.965Z,6.38
2022-12-03T22:34:10.178Z,6.85
2022-12-03T22:36:37.795Z,6.82
2022-12-03T22:39:05.603Z,6.28
2022-12-03T22:41:32.993Z,5.53
2022-12-03T22:44:00.379Z,6.18
2022-12-03T22:46:27.807Z,6.25
2022-12-03T22:48:55.105Z,6.30
2022-12-03T22:51:24.787Z,6.25
2022-12-03T22:54:00.432Z,6.10
2022-12-03T22:56:29.903Z,6.57
2022-12-03T22:58:57.342Z,6.70
2022-12-03T23:01:32.638Z,6.28
2022-12-03T23:04:00.657Z,6.63
2022-12-03T23:06:29.033Z,6.03
2022-12-03T23:08:58.461Z,7.07
2022-12-03T23:11:26.534Z,6.95
2022-12-03T23:13:54.093Z,6.50
2022-12-03T23:16:26.741Z,5.78
2022-12-03T23:18:54.362Z,5.97
2022-12-03T23:21:29.957Z,6.88
2022-12-03T23:24:01.581Z,5.97
2022-12-03T23:26:29.427Z,6.22
2022-12-03T23:28:57.159Z,7.00
2022-12-03T23:31:32.247Z,6.80
2022-12-03T23:34:00.647Z,7.55
2022-12-03T23:36:29.951Z,7.00
2022-12-03T23:38:57.341Z,7.25
2022-12-03T23:41:25.101Z,7.55
2022-12-03T23:43:53.010Z,7.07
2022-12-03T23:46:23.214Z,7.50
2022-12-03T23:48:52.736Z,7.47
2022-12-03T23:51:22.939Z,7.28
2022-12-03T23:53:50.834Z,7.13
2022-12-03T23:56:22.890Z,7.43
2022-12-03T23:58:50.583Z,7.70
